Time;durP1;ratioP1;P1;durP2;ratioP2;P2;SDS_P1;SDS_P2;PMS_P1;PMS_P2;Temp;Humidity;BMP_temperature;BMP_pressure;BME280_temperature;BME280_humidity;BME280_pressure;Samples;Min_cycle;Max_cycle;Signal;HPM_P1;HPM_P2
2022/04/01 00:00:08;;;;;;;13.48;4.68;;;0.40;99.90;;;;;;4995447;28;20049;-75
2022/04/01 00:02:34;;;;;;;9.40;2.92;;;0.30;99.90;;;;;;5027816;28;20096;-79
2022/04/01 00:05:00;;;;;;;12.85;3.60;;;0.40;99.90;;;;;;5027878;28;20052;-76
2022/04/01 00:07:25;;;;;;;10.23;4.40;;;0.40;99.90;;;;;;5011404;28;20050;-75
2022/04/01 00:09:51;;;;;;;10.55;2.90;;;0.30;99.90;;;;;;5011582;28;20076;-76
2022/04/01 00:12:17;;;;;;;16.40;6.25;;;0.30;99.90;;;;;;5011196;28;20050;-75
2022/04/01 00:14:43;;;;;;;16.08;5.30;;;0.40;99.90;;;;;;5011036;28;20088;-75
2022/04/01 00:17:09;;;;;;;15.07;5.75;;;0.30;99.90;;;;;;5011442;28;20046;-75
2022/04/01 00:19:34;;;;;;;13.80;4.50;;;0.30;99.90;;;;;;5011499;28;20050;-75
2022/04/01 00:22:00;;;;;;;16.67;4.97;;;0.30;99.90;;;;;;4994662;28;20052;-76
2022/04/01 00:24:26;;;;;;;15.27;5.63;;;0.30;99.90;;;;;;5010995;28;20057;-76
2022/04/01 00:26:52;;;;;;;11.52;3.47;;;0.30;99.90;;;;;;5012284;28;20042;-75
2022/04/01 00:29:20;;;;;;;14.88;5.13;;;0.30;99.90;;;;;;5013042;28;20054;-75
2022/04/01 00:31:46;;;;;;;;;;;0.30;99.90;;;;;;5012984;28;20069;-75
2022/04/01 00:34:15;;;;;;;7.07;2.70;;;0.30;99.90;;;;;;4995197;28;19921;-77
2022/04/01 00:36:42;;;;;;;17.45;5.25;;;0.40;99.90;;;;;;5011226;28;20058;-75
2022/04/01 00:39:08;;;;;;;14.18;4.93;;;0.30;99.90;;;;;;5012438;28;20122;-77
2022/04/01 00:41:34;;;;;;;24.98;5.70;;;0.30;99.90;;;;;;4995819;28;20046;-75
2022/04/01 00:44:19;;;;;;;13.73;4.05;;;0.30;99.90;;;;;;5011950;28;20081;-77
2022/04/01 00:46:49;;;;;;;9.18;3.63;;;0.30;99.90;;;;;;5011743;28;20050;-74
2022/04/01 00:49:16;;;;;;;11.63;3.63;;;0.30;99.90;;;;;;5013116;28;20159;-75
2022/04/01 00:51:43;;;;;;;11.80;4.45;;;0.30;99.90;;;;;;5012428;28;20524;-74
2022/04/01 00:54:10;;;;;;;;;;;0.30;99.90;;;;;;5029978;28;20054;-76
2022/04/01 00:56:37;;;;;;;6.95;1.75;;;0.30;99.90;;;;;;5016209;28;20340;-75
2022/04/01 00:59:03;;;;;;;8.23;2.03;;;0.30;99.90;;;;;;5015969;28;20096;-75
2022/04/01 01:01:35;;;;;;;9.23;2.65;;;0.30;99.90;;;;;;5031210;28;20104;-78
2022/04/01 01:04:09;;;;;;;9.23;2.00;;;0.30;99.90;;;;;;5015951;28;20137;-76
2022/04/01 01:06:37;;;;;;;10.00;3.20;;;0.30;99.90;;;;;;5031059;28;20462;-76
2022/04/01 01:09:04;;;;;;;13.07;2.90;;;0.30;99.90;;;;;;5016460;28;20053;-75
2022/04/01 01:11:35;;;;;;;21.85;4.82;;;0.30;99.90;;;;;;5015909;28;20104;-75
2022/04/01 01:14:02;;;;;;;11.98;3.25;;;0.20;99.90;;;;;;5015796;28;20046;-75
2022/04/01 01:16:28;;;;;;;9.03;2.20;;;0.30;99.90;;;;;;5014504;28;20108;-74
2022/04/01 01:19:20;;;;;;;16.70;2.80;;;0.20;99.90;;;;;;5030878;28;20287;-77
2022/04/01 01:21:49;;;;;;;13.60;4.43;;;0.20;99.90;;;;;;5014364;28;20061;-75
2022/04/01 01:24:16;;;;;;;10.95;3.15;;;0.20;99.90;;;;;;5030714;28;20390;-74
2022/04/01 01:26:44;;;;;;;17.92;3.42;;;0.20;99.90;;;;;;5015625;28;20064;-77
2022/04/01 01:29:10;;;;;;;10.48;2.20;;;0.20;99.90;;;;;;5015925;28;20060;-75
2022/04/01 01:31:36;;;;;;;5.33;1.37;;;0.20;99.90;;;;;;5015481;28;20502;-75
2022/04/01 01:34:04;;;;;;;9.75;1.77;;;0.30;99.90;;;;;;5013307;28;20046;-72
2022/04/01 01:36:30;;;;;;;8.52;2.45;;;0.20;99.90;;;;;;5015719;28;20427;-71
2022/04/01 01:38:57;;;;;;;4.10;1.08;;;0.30;99.90;;;;;;5014242;28;20060;-74
2022/04/01 01:41:22;;;;;;;8.97;2.00;;;0.30;99.90;;;;;;5015467;28;20054;-73
2022/04/01 01:43:49;;;;;;;11.52;2.50;;;0.20;99.90;;;;;;5015368;28;20348;-73
2022/04/01 01:46:15;;;;;;;5.82;1.38;;;0.20;99.90;;;;;;5014832;28;20102;-73
2022/04/01 01:48:41;;;;;;;11.25;2.97;;;0.20;99.90;;;;;;5014571;28;20052;-73
2022/04/01 01:56:39;;;;;;;8.63;2.10;;;0.20;99.90;;;;;;5013434;28;20046;-72
2022/04/01 01:59:05;;;;;;;11.63;3.58;;;0.30;99.90;;;;;;5013977;28;20066;-73
2022/04/01 02:01:32;;;;;;;9.45;2.75;;;0.20;99.90;;;;;;5013368;28;20049;-73
2022/04/01 02:04:01;;;;;;;12.30;3.22;;;0.20;99.90;;;;;;4997878;28;20068;-73
2022/04/01 02:06:27;;;;;;;8.38;1.50;;;0.20;99.90;;;;;;5014492;28;20093;-73
2022/04/01 02:08:54;;;;;;;9.80;1.80;;;0.20;99.90;;;;;;5013423;28;20580;-74
2022/04/01 02:11:23;;;;;;;12.05;1.80;;;0.30;99.90;;;;;;5013991;28;20493;-73
2022/04/01 02:13:50;;;;;;;11.57;2.38;;;0.20;99.90;;;;;;5014148;28;20128;-71
2022/04/01 02:16:16;;;;;;;10.13;2.30;;;0.20;99.90;;;;;;5014462;28;20058;-72
2022/04/01 02:18:42;;;;;;;7.32;1.67;;;0.20;99.90;;;;;;5014521;28;20046;-71
2022/04/01 02:21:11;;;;;;;16.48;4.53;;;0.20;99.90;;;;;;5013702;28;20081;-73
2022/04/01 02:23:43;;;;;;;8.43;2.50;;;0.10;99.90;;;;;;5013272;28;20045;-71
2022/04/01 02:26:09;;;;;;;9.35;2.92;;;0.20;99.90;;;;;;5014249;28;20370;-72
2022/04/01 02:28:39;;;;;;;10.13;2.50;;;0.20;99.90;;;;;;5013169;28;20046;-72
2022/04/01 02:31:05;;;;;;;16.30;3.53;;;0.20;99.90;;;;;;5013168;28;20049;-73
2022/04/01 02:33:35;;;;;;;8.85;2.22;;;0.10;99.90;;;;;;5013187;28;20048;-72
2022/04/01 02:36:03;;;;;;;18.65;4.18;;;0.20;99.90;;;;;;5012886;28;20121;-72
2022/04/01 02:38:30;;;;;;;6.28;2.05;;;0.20;99.90;;;;;;5013066;28;20352;-72
2022/04/01 02:40:57;;;;;;;10.32;2.53;;;0.20;99.90;;;;;;5012977;28;20058;-70
2022/04/01 02:43:25;;;;;;;12.98;3.47;;;0.20;99.90;;;;;;5013172;28;20054;-71
2022/04/01 02:45:51;;;;;;;10.80;3.72;;;0.20;99.90;;;;;;4996517;28;20073;-72
2022/04/01 02:48:19;;;;;;;19.15;3.97;;;0.20;99.90;;;;;;5012682;28;20045;-73
2022/04/01 02:50:46;;;;;;;13.93;2.92;;;0.20;99.90;;;;;;5013981;28;20153;-71
2022/04/01 02:53:12;;;;;;;;;;;0.10;99.90;;;;;;5014088;28;20089;-72
2022/04/01 02:55:39;;;;;;;14.52;3.83;;;0.20;99.90;;;;;;5012372;28;19965;-72
2022/04/01 02:58:06;;;;;;;14.55;3.78;;;0.20;99.90;;;;;;5013574;28;20042;-72
2022/04/01 03:00:37;;;;;;;39.40;7.50;;;0.20;99.90;;;;;;5028911;28;20060;-72
2022/04/01 03:03:07;;;;;;;39.20;4.57;;;0.20;99.90;;;;;;5014167;28;20443;-72
2022/04/01 03:05:34;;;;;;;14.35;3.17;;;0.20;99.90;;;;;;5014235;28;20378;-71
2022/04/01 03:08:01;;;;;;;14.68;3.83;;;0.20;99.90;;;;;;4996450;28;20046;-73
2022/04/01 03:10:27;;;;;;;7.30;1.85;;;0.10;99.90;;;;;;4996419;28;20060;-74
2022/04/01 03:12:53;;;;;;;10.88;2.80;;;0.20;99.90;;;;;;5015008;28;20058;-72
2022/04/01 03:15:19;;;;;;;15.38;2.50;;;0.20;99.90;;;;;;5013609;28;20050;-71
2022/04/01 03:17:45;;;;;;;9.25;2.35;;;0.20;99.90;;;;;;5011806;28;20053;-72
2022/04/01 03:20:14;;;;;;;9.95;1.95;;;0.20;99.90;;;;;;5028561;28;20049;-72
2022/04/01 03:22:41;;;;;;;17.83;4.20;;;0.20;99.90;;;;;;5013761;28;20050;-72
2022/04/01 03:25:12;;;;;;;12.80;1.85;;;0.20;99.90;;;;;;5013018;28;20046;-72
2022/04/01 03:27:39;;;;;;;12.30;3.22;;;0.20;99.90;;;;;;5012238;28;20061;-72
2022/04/01 03:30:09;;;;;;;10.00;2.15;;;0.10;99.90;;;;;;5012426;28;20107;-72
2022/04/01 03:32:37;;;;;;;12.07;2.47;;;0.20;99.90;;;;;;5013879;28;20050;-72
2022/04/01 03:35:05;;;;;;;13.02;4.47;;;0.20;99.90;;;;;;5013574;28;20056;-73
2022/04/01 03:37:31;;;;;;;9.20;2.08;;;0.20;99.90;;;;;;5012512;28;20053;-73
2022/04/01 03:39:58;;;;;;;16.05;3.58;;;0.20;99.90;;;;;;4996156;28;20475;-72
2022/04/01 03:42:27;;;;;;;11.80;2.42;;;0.10;99.90;;;;;;5013602;28;20140;-72
2022/04/01 03:44:53;;;;;;;11.05;2.28;;;0.20;99.90;;;;;;5012792;28;20156;-72
2022/04/01 03:47:24;;;;;;;12.05;3.67;;;0.20;99.90;;;;;;5015609;28;20064;-74
2022/04/01 03:49:52;;;;;;;8.95;2.67;;;0.20;99.90;;;;;;5022406;28;20140;-71
2022/04/01 03:52:24;;;;;;;16.98;3.28;;;0.30;99.90;;;;;;5024579;28;20048;-73
2022/04/01 03:54:54;;;;;;;10.00;2.20;;;0.20;99.90;;;;;;5023386;28;20073;-72
2022/04/01 03:57:24;;;;;;;10.40;1.67;;;0.30;99.90;;;;;;5022400;28;20069;-73
2022/04/01 03:59:54;;;;;;;8.60;2.35;;;0.30;99.90;;;;;;5019890;28;20038;-72
2022/04/01 04:02:20;;;;;;;8.68;1.17;;;0.20;99.90;;;;;;5014053;28;20069;-73
2022/04/01 04:04:48;;;;;;;9.25;2.30;;;0.30;99.90;;;;;;5014256;28;20151;-71
2022/04/01 04:07:15;;;;;;;7.28;1.42;;;0.20;99.90;;;;;;4996140;28;20104;-71
2022/04/01 04:09:41;;;;;;;14.02;2.95;;;0.30;99.90;;;;;;5013288;28;20053;-72
2022/04/01 04:12:13;;;;;;;6.70;1.70;;;0.30;99.90;;;;;;5028536;28;20135;-74
2022/04/01 04:14:43;;;;;;;11.43;2.13;;;0.30;99.90;;;;;;5012389;28;20574;-74
2022/04/01 04:17:16;;;;;;;9.75;2.05;;;0.40;99.90;;;;;;5028094;28;20132;-73
2022/04/01 04:19:57;;;;;;;6.70;2.05;;;0.30;99.90;;;;;;5012266;28;20421;-73
2022/04/01 04:22:30;;;;;;;4.85;1.33;;;0.30;99.90;;;;;;5012390;28;20042;-73
2022/04/01 04:25:10;;;;;;;9.90;2.38;;;0.30;99.90;;;;;;5012183;28;20168;-73
2022/04/01 04:27:36;;;;;;;8.18;2.05;;;0.40;99.90;;;;;;5013685;28;20151;-71
2022/04/01 04:30:08;;;;;;;7.90;2.30;;;0.40;99.90;;;;;;5016617;28;20092;-73
2022/04/01 04:32:54;;;;;;;10.25;2.47;;;0.40;99.90;;;;;;4999596;28;20050;-73
2022/04/01 04:35:21;;;;;;;10.00;2.17;;;0.40;99.90;;;;;;5031757;28;20049;-72
2022/04/01 04:37:49;;;;;;;7.90;2.35;;;0.40;99.90;;;;;;5015464;28;20379;-74
2022/04/01 04:40:15;;;;;;;;;;;0.50;99.90;;;;;;5015322;28;20108;-73
2022/04/01 04:42:45;;;;;;;7.33;1.97;;;0.40;99.90;;;;;;5016398;28;19922;-72
2022/04/01 04:45:19;;;;;;;11.68;2.80;;;0.40;99.90;;;;;;5016557;28;20050;-75
2022/04/01 04:47:46;;;;;;;10.50;2.60;;;0.50;99.90;;;;;;5016274;28;20137;-72
2022/04/01 04:50:15;;;;;;;7.03;2.20;;;0.40;99.90;;;;;;5017234;28;20351;-74
2022/04/01 04:52:49;;;;;;;14.10;3.03;;;0.50;99.90;;;;;;5031900;28;20050;-73
2022/04/01 04:55:18;;;;;;;14.25;1.75;;;0.50;99.90;;;;;;5016325;28;20045;-73
2022/04/01 04:57:46;;;;;;;4.47;0.85;;;0.50;99.90;;;;;;5015945;28;20375;-70
2022/04/01 05:00:13;;;;;;;7.15;2.17;;;0.60;99.90;;;;;;5016926;28;20049;-74
2022/04/01 05:03:26;;;;;;;8.73;2.75;;;0.50;99.90;;;;;;5000309;28;20140;-72
2022/04/01 05:05:56;;;;;;;11.07;2.35;;;0.50;99.90;;;;;;5017162;28;20156;-72
2022/04/01 05:08:30;;;;;;;12.45;2.08;;;0.50;99.90;;;;;;5016198;28;20050;-72
2022/04/01 05:11:08;;;;;;;7.20;2.50;;;0.50;99.90;;;;;;5015097;28;20050;-72
2022/04/01 05:13:55;;;;;;;10.57;2.13;;;0.50;99.90;;;;;;5016639;28;20192;-73
2022/04/01 05:16:44;;;;;;;16.88;2.80;;;0.50;99.90;;;;;;5017777;28;20062;-74
2022/04/01 05:19:12;;;;;;;10.45;2.17;;;0.60;99.90;;;;;;5012609;28;20065;-72
2022/04/01 05:22:02;;;;;;;10.05;2.35;;;0.60;99.90;;;;;;5016918;28;20042;-72
2022/04/01 05:25:02;;;;;;;9.55;2.08;;;0.60;99.90;;;;;;5015419;28;20466;-73
2022/04/01 05:27:40;;;;;;;7.18;2.08;;;0.60;99.90;;;;;;4993689;28;20061;-71
2022/04/01 05:30:16;;;;;;;11.07;3.17;;;0.60;99.90;;;;;;5015856;28;20096;-72
2022/04/01 05:33:10;;;;;;;6.90;1.27;;;0.60;99.90;;;;;;4999315;28;20081;-75
2022/04/01 05:35:38;;;;;;;8.43;1.25;;;0.80;99.90;;;;;;5015033;28;20491;-73
2022/04/01 05:38:07;;;;;;;7.78;2.20;;;0.70;99.90;;;;;;5014405;28;20579;-73
2022/04/01 05:40:34;;;;;;;12.63;3.08;;;0.70;99.90;;;;;;5014770;28;20394;-74
2022/04/01 05:43:01;;;;;;;7.85;2.85;;;0.70;99.90;;;;;;5014376;28;20050;-75
2022/04/01 05:45:28;;;;;;;;;;;0.80;99.90;;;;;;5015376;28;20173;-74
2022/04/01 05:47:55;;;;;;;10.15;2.28;;;0.80;99.90;;;;;;5016181;28;19921;-74
2022/04/01 05:50:22;;;;;;;12.18;2.35;;;0.80;99.90;;;;;;4981905;28;20173;-73
2022/04/01 05:52:49;;;;;;;11.90;3.25;;;0.80;99.90;;;;;;5030879;28;20050;-73
2022/04/01 05:55:22;;;;;;;10.68;2.25;;;0.90;99.90;;;;;;4997913;28;20061;-75
2022/04/01 05:57:48;;;;;;;11.55;2.33;;;1.00;99.90;;;;;;5015874;28;20138;-74
2022/04/01 06:00:14;;;;;;;14.50;2.38;;;0.90;99.90;;;;;;5015073;28;20085;-74
2022/04/01 06:02:43;;;;;;;11.57;1.90;;;0.90;99.90;;;;;;5015386;28;20090;-74
2022/04/01 06:05:23;;;;;;;8.07;1.75;;;1.00;99.90;;;;;;5016252;28;20053;-75
2022/04/01 06:08:11;;;;;;;7.53;1.45;;;1.00;99.90;;;;;;5033592;28;20093;-74
2022/04/01 06:10:52;;;;;;;7.50;2.15;;;1.10;99.90;;;;;;5015673;28;20049;-75
2022/04/01 06:13:27;;;;;;;8.60;2.13;;;1.20;99.90;;;;;;5031240;28;20054;-74
2022/04/01 06:16:02;;;;;;;7.18;1.52;;;1.20;99.90;;;;;;5014409;28;20060;-76
2022/04/01 06:19:04;;;;;;;7.88;1.52;;;1.30;99.90;;;;;;5015292;28;20064;-75
2022/04/01 06:21:46;;;;;;;8.77;1.80;;;1.30;99.90;;;;;;5015277;28;20046;-75
2022/04/01 06:24:23;;;;;;;6.18;1.33;;;1.40;99.90;;;;;;5013750;28;20049;-75
2022/04/01 06:26:58;;;;;;;8.70;1.77;;;1.30;99.90;;;;;;5030246;28;20089;-74
2022/04/01 06:29:48;;;;;;;9.77;1.75;;;1.50;99.90;;;;;;5014310;28;20088;-75
2022/04/01 06:32:34;;;;;;;8.25;1.40;;;1.50;99.90;;;;;;5013483;28;20134;-74
2022/04/01 06:35:06;;;;;;;3.83;0.95;;;1.50;99.90;;;;;;5013365;28;20054;-73
2022/04/01 06:37:53;;;;;;;6.50;0.82;;;1.60;99.90;;;;;;5029296;28;20093;-70
2022/04/01 06:40:23;;;;;;;6.30;0.93;;;1.60;99.90;;;;;;5013714;28;20091;-73
2022/04/01 06:42:52;;;;;;;6.82;1.08;;;1.70;99.90;;;;;;5013705;28;20042;-73
2022/04/01 06:45:19;;;;;;;5.40;0.80;;;1.90;99.90;;;;;;5012962;28;20080;-73
2022/04/01 06:47:46;;;;;;;5.85;1.00;;;1.80;99.90;;;;;;5012961;28;20041;-75
2022/04/01 06:50:14;;;;;;;4.00;0.90;;;1.90;99.90;;;;;;4996401;28;20053;-73
2022/04/01 06:52:40;;;;;;;3.80;0.60;;;2.00;99.90;;;;;;5028327;28;20504;-73
2022/04/01 06:55:10;;;;;;;2.47;0.70;;;2.00;99.90;;;;;;5012944;28;20049;-74
2022/04/01 06:57:36;;;;;;;4.25;0.80;;;2.10;99.90;;;;;;5013130;28;20046;-75
2022/04/01 07:00:08;;;;;;;3.08;0.43;;;2.10;99.90;;;;;;5013241;28;20160;-73
2022/04/01 07:02:35;;;;;;;3.42;0.70;;;2.10;99.90;;;;;;5012818;28;20136;-74
2022/04/01 07:05:02;;;;;;;6.78;0.70;;;2.10;99.90;;;;;;5012759;28;20076;-74
2022/04/01 07:07:28;;;;;;;2.08;0.50;;;2.20;99.90;;;;;;5013900;28;20050;-76
2022/04/01 07:09:54;;;;;;;2.20;0.57;;;2.10;99.90;;;;;;5012612;28;20053;-74
2022/04/01 07:12:27;;;;;;;2.88;0.60;;;2.20;99.90;;;;;;5145514;27;1345235;-76
2022/04/01 07:14:53;;;;;;;4.95;0.80;;;2.20;99.90;;;;;;5152023;27;20043;-74
2022/04/01 07:17:18;;;;;;;5.35;0.60;;;2.20;99.90;;;;;;5152668;27;20451;-72
2022/04/01 07:19:44;;;;;;;5.63;0.93;;;2.30;99.90;;;;;;5134432;27;20475;-77
2022/04/01 07:22:11;;;;;;;4.03;0.75;;;2.20;99.90;;;;;;5135389;27;20046;-74
2022/04/01 07:24:37;;;;;;;5.18;1.17;;;2.40;99.90;;;;;;5133067;27;20434;-74
2022/04/01 07:27:03;;;;;;;4.63;0.95;;;2.30;99.90;;;;;;5152210;27;20075;-76
2022/04/01 07:29:29;;;;;;;3.30;0.73;;;2.30;99.90;;;;;;5133623;27;20107;-76
2022/04/01 07:34:42;;;;;;;4.43;0.90;;;2.50;99.90;;;;;;5151318;27;20038;-73
2022/04/01 07:37:09;;;;;;;6.50;1.00;;;2.60;99.90;;;;;;5117538;27;20046;-74
2022/04/01 07:39:36;;;;;;;6.68;0.73;;;2.70;99.90;;;;;;5150267;27;20053;-72
2022/04/01 07:42:02;;;;;;;4.65;1.30;;;2.70;99.90;;;;;;5169851;27;20497;-72
2022/04/01 07:44:28;;;;;;;7.68;1.30;;;2.60;99.90;;;;;;5160055;27;20122;-71
2022/04/01 07:46:55;;;;;;;6.05;1.55;;;2.70;99.90;;;;;;5130564;27;20129;-74
2022/04/01 07:49:21;;;;;;;7.82;1.38;;;2.80;99.90;;;;;;5133354;27;20058;-71
2022/04/01 07:51:47;;;;;;;5.70;1.55;;;3.00;99.90;;;;;;5115970;27;20471;-71
2022/04/01 07:54:16;;;;;;;9.00;1.45;;;3.00;99.90;;;;;;5147761;27;20493;-72
2022/04/01 07:56:43;;;;;;;8.13;1.92;;;2.80;99.90;;;;;;5148662;27;20040;-72
2022/04/01 07:59:10;;;;;;;4.50;0.90;;;2.80;99.90;;;;;;5148669;27;20492;-70
2022/04/01 08:01:36;;;;;;;6.00;1.98;;;3.10;99.90;;;;;;5112908;27;20046;-73
2022/04/01 08:04:03;;;;;;;5.75;1.10;;;2.80;99.90;;;;;;5151435;27;20316;-74
2022/04/01 08:06:33;;;;;;;5.55;0.90;;;2.90;99.90;;;;;;5153420;27;20549;-71
2022/04/01 08:09:00;;;;;;;8.82;1.20;;;3.10;99.90;;;;;;5133222;27;20247;-72
2022/04/01 08:11:26;;;;;;;;;;;3.10;99.90;;;;;;5135205;27;20064;-71
2022/04/01 08:13:55;;;;;;;4.55;0.90;;;3.20;99.90;;;;;;5168796;27;19919;-71
2022/04/01 08:16:22;;;;;;;5.32;0.98;;;3.30;99.90;;;;;;5152299;27;20592;-70
2022/04/01 08:18:48;;;;;;;4.82;1.58;;;3.10;99.90;;;;;;5151691;27;20069;-71
2022/04/01 08:21:16;;;;;;;4.60;1.40;;;;;;;;;;5150664;27;20054;-71
2022/04/01 08:23:42;;;;;;;10.38;2.42;;;3.20;99.90;;;;;;5139192;27;20370;-71
2022/04/01 08:26:11;;;;;;;3.22;0.93;;;3.00;99.90;;;;;;5136351;27;20046;-72
2022/04/01 08:28:37;;;;;;;7.85;2.17;;;3.50;99.90;;;;;;5100335;27;20067;-73
2022/04/01 08:31:04;;;;;;;7.10;1.87;;;3.10;99.90;;;;;;5135606;27;20079;-72
2022/04/01 08:33:31;;;;;;;4.32;1.05;;;3.20;99.90;;;;;;5115586;27;20304;-71
2022/04/01 08:35:57;;;;;;;11.80;1.90;;;3.30;99.90;;;;;;5140208;27;20157;-69
2022/04/01 08:38:24;;;;;;;8.23;2.28;;;3.60;99.90;;;;;;5123977;27;20050;-71
2022/04/01 08:40:50;;;;;;;5.90;1.70;;;3.70;99.90;;;;;;5121925;27;20054;-72
2022/04/01 08:43:28;;;;;;;8.93;2.38;;;3.50;99.90;;;;;;5105906;27;20119;-71
2022/04/01 08:45:57;;;;;;;10.38;3.67;;;3.70;99.90;;;;;;5139696;27;20042;-72
2022/04/01 08:48:25;;;;;;;8.98;2.63;;;3.40;99.90;;;;;;5123649;27;20113;-72
2022/04/01 08:50:52;;;;;;;5.93;2.25;;;3.40;99.90;;;;;;5133133;27;20043;-71
2022/04/01 08:53:27;;;;;;;7.18;2.35;;;3.50;99.90;;;;;;5158803;27;20184;-70
2022/04/01 08:55:56;;;;;;;6.53;2.25;;;3.50;99.90;;;;;;5106714;27;20082;-71
2022/04/01 08:58:24;;;;;;;8.25;2.10;;;3.90;99.90;;;;;;5141881;27;20042;-69
2022/04/01 09:00:53;;;;;;;12.05;4.93;;;;;;;;;;5122578;27;20089;-71
2022/04/01 09:03:22;;;;;;;6.45;1.90;;;;;;;;;;5122510;27;20074;-72
2022/04/01 09:05:58;;;;;;;7.03;2.20;;;3.30;99.90;;;;;;5156152;27;20197;-71
2022/04/01 09:08:44;;;;;;;15.60;4.88;;;3.30;99.90;;;;;;5140912;27;20046;-72
2022/04/01 09:11:18;;;;;;;8.27;2.83;;;3.20;99.90;;;;;;5137597;27;20054;-72
2022/04/01 09:13:50;;;;;;;11.30;4.22;;;3.10;99.90;;;;;;5118208;27;20115;-72
2022/04/01 09:16:26;;;;;;;6.43;2.40;;;3.20;99.90;;;;;;5118420;27;20058;-71
2022/04/01 09:19:00;;;;;;;11.13;3.25;;;3.20;99.90;;;;;;5118796;27;20130;-72
2022/04/01 09:21:33;;;;;;;13.98;5.20;;;3.50;99.90;;;;;;5124051;27;20039;-71
2022/04/01 09:24:00;;;;;;;14.85;3.60;;;2.90;99.90;;;;;;5099894;28;20086;-71
2022/04/01 09:26:37;;;;;;;10.50;3.75;;;2.90;99.90;;;;;;5067886;28;20542;-70
2022/04/01 09:29:11;;;;;;;18.85;5.15;;;2.90;99.90;;;;;;5114376;28;20203;-70
2022/04/01 09:31:41;;;;;;;15.13;5.80;;;2.80;99.90;;;;;;5132523;27;20124;-70
2022/04/01 09:34:11;;;;;;;17.05;7.32;;;2.70;99.90;;;;;;5116587;27;20059;-70
2022/04/01 09:36:38;;;;;;;19.38;7.53;;;2.70;99.90;;;;;;5115520;27;20042;-69
2022/04/01 09:39:13;;;;;;;19.58;6.00;;;2.70;99.90;;;;;;5131616;27;20498;-69
2022/04/01 09:41:47;;;;;;;13.10;5.40;;;2.70;99.90;;;;;;5115397;27;20042;-70
2022/04/01 09:44:16;;;;;;;14.68;5.70;;;2.90;99.90;;;;;;5131417;27;20140;-71
2022/04/01 09:46:50;;;;;;;22.10;5.82;;;3.00;99.90;;;;;;5130841;27;20062;-70
2022/04/01 09:49:39;;;;;;;18.40;6.35;;;3.20;99.90;;;;;;5114316;27;20243;-71
2022/04/01 09:52:22;;;;;;;16.42;6.80;;;3.30;99.90;;;;;;5130235;27;20047;-71
2022/04/01 09:54:55;;;;;;;15.63;7.30;;;3.10;99.90;;;;;;5130556;27;20055;-72
2022/04/01 09:57:33;;;;;;;15.65;6.70;;;3.30;99.90;;;;;;5135151;27;20051;-71
2022/04/01 09:59:59;;;;;;;14.98;7.45;;;3.50;99.90;;;;;;5117185;27;20107;-71
2022/04/01 10:02:26;;;;;;;18.00;6.63;;;3.20;99.90;;;;;;5120132;27;20149;-70
2022/04/01 10:04:54;;;;;;;22.60;7.37;;;3.40;99.90;;;;;;5138736;27;20043;-72
2022/04/01 10:07:25;;;;;;;17.20;6.28;;;3.10;99.90;;;;;;5116411;27;20636;-71
2022/04/01 10:09:53;;;;;;;23.20;9.43;;;3.40;99.90;;;;;;5128509;27;20058;-72
2022/04/01 10:12:23;;;;;;;16.65;7.82;;;3.50;99.90;;;;;;5093730;28;20064;-69
2022/04/01 10:15:00;;;;;;;18.08;6.72;;;3.40;99.90;;;;;;5063956;28;20044;-70
2022/04/01 10:17:29;;;;;;;21.17;7.78;;;3.50;99.90;;;;;;5113262;28;20054;-72
2022/04/01 10:19:58;;;;;;;12.23;4.80;;;3.50;99.90;;;;;;5111139;28;20118;-71
2022/04/01 10:22:27;;;;;;;19.75;8.13;;;3.60;99.90;;;;;;5077108;28;20104;-71
2022/04/01 10:25:18;;;;;;;15.80;6.80;;;3.70;99.90;;;;;;5109389;28;20058;-72
2022/04/01 10:27:53;;;;;;;13.15;6.10;;;3.60;99.90;;;;;;5115577;28;20047;-73
2022/04/01 10:30:20;;;;;;;20.23;8.00;;;3.80;99.90;;;;;;5093104;28;20044;-75
2022/04/01 10:32:48;;;;;;;16.17;5.15;;;3.90;99.90;;;;;;5110363;28;20111;-76
2022/04/01 10:35:26;;;;;;;19.10;9.82;;;4.00;99.90;;;;;;5093495;28;20043;-71
2022/04/01 10:38:17;;;;;;;21.85;8.77;;;3.90;99.90;;;;;;5091895;28;20126;-73
2022/04/01 10:40:45;;;;;;;15.75;7.22;;;3.90;99.90;;;;;;5087205;28;20040;-73
2022/04/01 10:43:27;;;;;;;19.33;6.55;;;3.90;99.90;;;;;;5104708;28;20058;-72
2022/04/01 10:45:58;;;;;;;15.65;5.18;;;3.90;99.90;;;;;;5089166;28;20090;-71
2022/04/01 10:51:37;;;;;;;17.05;8.10;;;3.80;99.90;;;;;;5103809;28;20109;-73
2022/04/01 10:54:12;;;;;;;17.23;6.22;;;3.90;99.90;;;;;;5125437;27;20039;-72
2022/04/01 10:56:43;;;;;;;13.88;5.00;;;3.70;99.90;;;;;;5093678;28;20043;-72
2022/04/01 10:59:22;;;;;;;14.40;4.80;;;4.00;99.90;;;;;;5092508;28;20087;-72
2022/04/01 11:01:54;;;;;;;13.15;5.97;;;4.20;99.90;;;;;;5111477;28;20048;-71
2022/04/01 11:04:19;;;;;;;13.20;5.78;;;4.30;99.90;;;;;;5093510;28;20451;-72
2022/04/01 11:07:00;;;;;;;16.30;7.22;;;4.40;99.90;;;;;;5111229;28;20079;-72
2022/04/01 11:09:52;;;;;;;22.52;7.80;;;4.00;99.90;;;;;;5091655;28;20445;-72
2022/04/01 11:12:27;;;;;;;17.15;7.10;;;4.10;99.90;;;;;;5107805;28;20109;-78
2022/04/01 11:15:11;;;;;;;19.50;10.00;;;4.00;99.90;;;;;;5130026;28;20057;-75
2022/04/01 11:17:37;;;;;;;14.85;6.18;;;3.80;99.90;;;;;;5131216;28;20043;-73
2022/04/01 11:20:13;;;;;;;16.25;7.47;;;4.10;99.90;;;;;;5130602;28;20171;-71
2022/04/01 11:22:45;;;;;;;12.88;4.82;;;4.10;99.90;;;;;;5123727;28;20048;-73
2022/04/01 11:25:13;;;;;;;9.45;3.97;;;4.00;99.90;;;;;;5108439;28;20054;-74
2022/04/01 11:28:08;;;;;;;13.52;6.25;;;3.90;99.90;;;;;;5113537;28;20075;-75
2022/04/01 11:31:04;;;;;;;10.82;4.18;;;4.10;99.90;;;;;;5105142;28;20095;-73
2022/04/01 11:33:35;;;;;;;14.55;4.85;;;4.30;99.90;;;;;;5118664;28;20512;-74
2022/04/01 11:36:03;;;;;;;12.82;5.28;;;4.30;99.90;;;;;;5129422;28;20110;-73
2022/04/01 11:38:30;;;;;;;12.18;4.10;;;4.20;99.90;;;;;;5130532;28;20051;-72
2022/04/01 11:41:00;;;;;;;9.18;3.40;;;3.90;99.90;;;;;;5111054;28;20046;-74
2022/04/01 11:43:29;;;;;;;8.77;3.60;;;4.00;99.90;;;;;;5131500;27;20039;-73
2022/04/01 11:46:03;;;;;;;9.52;3.20;;;3.50;99.90;;;;;;5130807;27;20047;-73
2022/04/01 11:48:41;;;;;;;8.82;3.50;;;3.80;99.90;;;;;;5130568;28;20078;-73
2022/04/01 11:51:19;;;;;;;9.50;3.30;;;4.30;99.90;;;;;;5128011;28;20051;-72
2022/04/01 11:53:50;;;;;;;9.55;3.38;;;4.40;99.90;;;;;;5130731;28;20405;-73
2022/04/01 11:56:25;;;;;;;7.07;1.55;;;3.80;99.90;;;;;;5111403;27;20177;-73
2022/04/01 11:59:11;;;;;;;10.90;4.63;;;4.10;99.90;;;;;;5132172;27;20147;-75
2022/04/01 12:01:54;;;;;;;10.07;2.50;;;3.40;99.90;;;;;;5125109;27;20428;-73
2022/04/01 12:04:27;;;;;;;9.18;3.50;;;4.00;99.90;;;;;;5112890;28;20486;-74
2022/04/01 12:09:57;;;;;;;10.00;3.17;;;4.30;99.90;;;;;;5117825;27;20067;-75
2022/04/01 12:12:24;;;;;;;8.55;2.70;;;4.50;99.90;;;;;;5133730;27;20274;-73
2022/04/01 12:14:50;;;;;;;;;;;4.60;99.90;;;;;;5116495;27;20055;-73
2022/04/01 12:17:18;;;;;;;8.40;2.95;;;3.40;99.90;;;;;;5132781;27;20397;-74
2022/04/01 12:19:44;;;;;;;8.95;2.92;;;3.70;99.90;;;;;;5131157;27;20051;-74
2022/04/01 12:22:11;;;;;;;12.38;3.65;;;3.90;99.90;;;;;;5116472;27;20175;-74
2022/04/01 12:24:38;;;;;;;8.00;1.90;;;3.90;99.90;;;;;;5115580;27;20043;-72
2022/04/01 12:27:12;;;;;;;8.07;2.40;;;3.80;99.90;;;;;;5133287;27;20142;-74
2022/04/01 12:29:38;;;;;;;10.10;3.45;;;4.10;99.90;;;;;;5099252;27;20051;-73
2022/04/01 12:32:09;;;;;;;8.20;2.10;;;4.00;99.90;;;;;;5099003;27;20035;-74
2022/04/01 12:34:35;;;;;;;7.85;2.08;;;4.10;99.90;;;;;;5099293;28;20507;-73
2022/04/01 12:37:04;;;;;;;8.90;2.55;;;4.40;99.90;;;;;;5113405;28;20123;-72
2022/04/01 12:39:34;;;;;;;7.28;1.58;;;4.50;99.90;;;;;;5117491;27;20047;-72
2022/04/01 12:42:14;;;;;;;7.63;3.08;;;4.10;99.90;;;;;;5116811;27;20046;-73
2022/04/01 12:44:41;;;;;;;10.98;2.22;;;4.10;99.90;;;;;;5135221;27;20096;-74
2022/04/01 12:47:07;;;;;;;6.68;1.48;;;4.00;99.90;;;;;;5116273;27;20181;-73
2022/04/01 12:49:36;;;;;;;7.43;1.75;;;4.00;99.90;;;;;;5099863;27;20074;-74
2022/04/01 12:52:24;;;;;;;6.50;1.80;;;4.30;99.90;;;;;;5115357;27;20493;-74
2022/04/01 12:54:53;;;;;;;5.82;1.67;;;4.40;99.90;;;;;;5132343;27;20134;-74
2022/04/01 12:57:20;;;;;;;7.70;2.47;;;4.60;99.90;;;;;;5133800;27;20051;-73
2022/04/01 12:59:49;;;;;;;6.20;1.47;;;4.50;99.90;;;;;;5133697;27;20043;-74
2022/04/01 13:02:43;;;;;;;6.28;1.30;;;4.40;99.90;;;;;;5133503;27;20047;-74
2022/04/01 13:05:12;;;;;;;8.18;2.78;;;4.30;99.90;;;;;;5133531;27;20043;-74
2022/04/01 13:07:39;;;;;;;10.57;2.50;;;4.20;99.90;;;;;;5116111;27;20054;-73
2022/04/01 13:10:09;;;;;;;6.20;1.45;;;4.40;99.90;;;;;;5132746;27;20123;-73
2022/04/01 13:12:37;;;;;;;6.15;2.20;;;4.70;99.90;;;;;;5122293;27;20063;-75
2022/04/01 13:15:06;;;;;;;10.95;1.75;;;4.40;99.90;;;;;;5112299;28;20054;-74
2022/04/01 13:17:49;;;;;;;5.60;1.60;;;4.70;99.90;;;;;;5079575;28;20135;-74
2022/04/01 13:20:17;;;;;;;4.30;1.30;;;4.70;99.90;;;;;;5113397;28;20059;-74
2022/04/01 13:22:44;;;;;;;4.95;0.98;;;4.70;99.90;;;;;;5121574;27;20399;-75
2022/04/01 13:25:14;;;;;;;7.15;2.03;;;4.80;99.90;;;;;;5131293;27;20039;-72
2022/04/01 13:27:41;;;;;;;6.72;2.60;;;4.50;99.90;;;;;;5132472;27;20053;-75